Time;durP1;ratioP1;P1;durP2;ratioP2;P2;SDS_P1;SDS_P2;PMS_P1;PMS_P2;Temp;Humidity;BMP_temperature;BMP_pressure;BME280_temperature;BME280_humidity;BME280_pressure;Samples;Min_cycle;Max_cycle;Signal;HPM_P1;HPM_P2
2022/12/16 00:00:39;;;;;;;5.57;4.30;;;;;;;;;;6166822;29;20484;-74
2022/12/16 00:03:48;;;;;;;4.17;3.83;;;;;;;;;;6165870;29;20299;-74
2022/12/16 00:06:55;;;;;;;4.83;3.83;;;;;;;;;;6166516;29;20412;-74
2022/12/16 00:10:02;;;;;;;4.57;4.10;;;;;;;;;;6154191;28;20298;-74
2022/12/16 00:13:07;;;;;;;4.50;3.90;;;;;;;;;;6189495;28;20298;-74
2022/12/16 00:16:16;;;;;;;4.47;4.07;;;;;;;;;;6190362;28;20269;-74
2022/12/16 00:19:22;;;;;;;6.13;4.20;;;;;;;;;;6189743;28;20305;-75
2022/12/16 00:22:27;;;;;;;5.07;4.40;;;;;;;;;;6189444;28;20300;-75
2022/12/16 00:25:33;;;;;;;4.40;3.90;;;;;;;;;;6191310;28;20277;-75
2022/12/16 00:28:38;;;;;;;4.90;3.53;;;;;;;;;;6188576;28;20297;-75
2022/12/16 00:31:46;;;;;;;8.93;4.33;;;;;;;;;;6189891;28;20286;-75
2022/12/16 00:34:52;;;;;;;4.37;4.00;;;;;;;;;;6189610;28;20297;-75
2022/12/16 00:37:58;;;;;;;5.17;3.73;;;;;;;;;;6187129;28;20477;-75
2022/12/16 00:41:05;;;;;;;9.17;4.60;;;;;;;;;;6172254;28;20290;-75
2022/12/16 00:44:12;;;;;;;4.73;4.03;;;;;;;;;;6189188;28;20313;-75
2022/12/16 00:47:17;;;;;;;5.10;4.53;;;;;;;;;;6189008;28;20274;-75
2022/12/16 00:50:22;;;;;;;7.53;4.67;;;;;;;;;;6189351;28;20282;-76
2022/12/16 00:53:28;;;;;;;5.30;4.30;;;;;;;;;;6188977;28;20301;-74
2022/12/16 00:56:35;;;;;;;5.07;4.33;;;;;;;;;;6189718;28;20274;-76
2022/12/16 00:59:40;;;;;;;8.80;4.37;;;;;;;;;;6189006;28;20300;-75
2022/12/16 01:02:47;;;;;;;7.23;4.90;;;;;;;;;;6188826;28;20298;-75
2022/12/16 01:05:52;;;;;;;4.83;4.43;;;;;;;;;;6189122;28;20305;-75
2022/12/16 01:08:58;;;;;;;4.83;4.33;;;;;;;;;;6188692;28;20295;-75
2022/12/16 01:12:05;;;;;;;5.43;4.37;;;;;;;;;;6167187;28;20270;-76
2022/12/16 01:15:12;;;;;;;5.03;4.13;;;;;;;;;;6165115;29;20272;-75
2022/12/16 01:18:17;;;;;;;7.07;4.80;;;;;;;;;;6164738;28;20295;-75
2022/12/16 01:21:22;;;;;;;9.07;4.50;;;;;;;;;;6164759;29;20292;-75
2022/12/16 01:24:27;;;;;;;5.93;4.37;;;;;;;;;;6164724;29;20305;-76
2022/12/16 01:27:34;;;;;;;5.33;4.90;;;;;;;;;;6164217;29;20294;-75
2022/12/16 01:30:39;;;;;;;5.33;4.70;;;;;;;;;;6165124;29;20378;-75
2022/12/16 01:33:45;;;;;;;6.27;4.60;;;;;;;;;;6163838;28;20296;-76
2022/12/16 01:36:50;;;;;;;8.67;4.80;;;;;;;;;;6164658;29;20272;-75
2022/12/16 01:39:56;;;;;;;4.53;4.13;;;;;;;;;;6165356;28;20301;-75
2022/12/16 01:43:02;;;;;;;6.87;4.33;;;;;;;;;;6163961;29;20591;-75
2022/12/16 01:46:14;;;;;;;5.40;4.13;;;;;;;;;;6147614;29;20343;-75
2022/12/16 01:49:24;;;;;;;5.20;4.80;;;;;;;;;;6163534;29;20619;-75
2022/12/16 01:52:33;;;;;;;5.67;5.03;;;;;;;;;;6163951;28;20303;-75
2022/12/16 01:55:40;;;;;;;5.70;4.60;;;;;;;;;;6164097;28;20280;-75
2022/12/16 01:58:47;;;;;;;5.27;4.30;;;;;;;;;;6162371;28;20307;-75
2022/12/16 02:01:52;;;;;;;4.30;4.00;;;;;;;;;;6164211;29;20558;-75
2022/12/16 02:08:21;;;;;;;3.73;3.50;;;;;;;;;;6222635;28;20614;-89
2022/12/16 02:11:50;;;;;;;6.23;4.17;;;;;;;;;;6242817;28;20276;-87
2022/12/16 02:15:23;;;;;;;4.37;4.00;;;;;;;;;;6213860;28;20299;-88
2022/12/16 02:18:39;;;;;;;4.50;4.07;;;;;;;;;;6195263;28;20303;-88
2022/12/16 02:21:48;;;;;;;5.13;4.03;;;;;;;;;;6228507;28;20452;-88
2022/12/16 02:25:25;;;;;;;4.17;3.97;;;;;;;;;;6236568;28;20480;-88
2022/12/16 02:28:49;;;;;;;4.33;3.90;;;;;;;;;;6236289;28;20293;-88
2022/12/16 02:32:02;;;;;;;4.90;4.20;;;;;;;;;;6218673;28;20283;-88
2022/12/16 02:35:10;;;;;;;7.53;4.43;;;;;;;;;;6218084;28;20286;-87
2022/12/16 02:38:24;;;;;;;6.87;4.50;;;;;;;;;;6224884;28;20308;-88
2022/12/16 02:41:37;;;;;;;4.93;3.97;;;;;;;;;;6194422;28;20285;-88
2022/12/16 02:44:49;;;;;;;4.40;4.10;;;;;;;;;;6194541;28;20309;-88
2022/12/16 02:47:56;;;;;;;4.17;3.80;;;;;;;;;;6194489;28;20296;-87
2022/12/16 02:51:02;;;;;;;4.07;3.87;;;;;;;;;;6211858;28;20272;-87
2022/12/16 02:54:08;;;;;;;6.50;4.00;;;;;;;;;;6194452;28;20310;-86
2022/12/16 02:57:37;;;;;;;4.60;4.10;;;;;;;;;;6211663;28;20275;-87
2022/12/16 03:00:52;;;;;;;4.57;4.23;;;;;;;;;;6212222;28;20269;-88
2022/12/16 03:04:03;;;;;;;4.90;3.80;;;;;;;;;;6194865;28;20311;-87
2022/12/16 03:07:12;;;;;;;4.63;4.10;;;;;;;;;;6197329;28;20553;-89
2022/12/16 03:10:20;;;;;;;4.67;4.17;;;;;;;;;;6214356;28;20279;-88
2022/12/16 03:13:26;;;;;;;4.37;4.00;;;;;;;;;;6231150;28;20296;-87
2022/12/16 03:16:33;;;;;;;4.70;4.27;;;;;;;;;;6219027;28;20270;-87
2022/12/16 03:19:44;;;;;;;5.80;4.30;;;;;;;;;;6235533;28;20582;-87
2022/12/16 03:22:52;;;;;;;4.47;4.17;;;;;;;;;;6218245;28;20480;-87
2022/12/16 03:26:00;;;;;;;4.13;3.80;;;;;;;;;;6235882;28;20265;-87
2022/12/16 03:29:09;;;;;;;4.40;4.07;;;;;;;;;;6218393;28;20299;-87
2022/12/16 03:32:18;;;;;;;4.20;4.00;;;;;;;;;;6235799;28;20579;-87
2022/12/16 03:35:27;;;;;;;5.40;4.20;;;;;;;;;;6235828;28;20278;-87
2022/12/16 03:38:33;;;;;;;4.73;3.30;;;;;;;;;;6217979;28;20306;-87
2022/12/16 03:41:39;;;;;;;4.13;3.73;;;;;;;;;;6235446;28;20273;-87
2022/12/16 03:44:45;;;;;;;4.00;3.70;;;;;;;;;;6217754;28;20299;-89
2022/12/16 03:47:50;;;;;;;4.47;3.73;;;;;;;;;;6235330;28;20295;-88
2022/12/16 03:50:56;;;;;;;6.13;4.07;;;;;;;;;;6217800;28;20279;-86
2022/12/16 03:54:01;;;;;;;4.40;4.00;;;;;;;;;;6234777;28;20511;-89
2022/12/16 03:57:07;;;;;;;4.60;4.17;;;;;;;;;;6235245;28;20271;-89
2022/12/16 04:00:20;;;;;;;4.30;3.90;;;;;;;;;;6217981;28;20279;-88
2022/12/16 04:03:25;;;;;;;4.77;4.37;;;;;;;;;;6212054;28;20302;-88
2022/12/16 04:06:35;;;;;;;7.27;5.27;;;;;;;;;;6232970;28;20295;-88
2022/12/16 04:09:41;;;;;;;5.17;4.00;;;;;;;;;;6197868;28;20567;-88
2022/12/16 04:26:26;;;;;;;4.43;4.13;;;;;;;;;;6198494;28;20293;-87
2022/12/16 04:29:31;;;;;;;5.23;4.23;;;;;;;;;;6214892;28;20298;-87
